| time (UTC) | temp F | wind direction | speed MPH | gust MPH | rain 1hr in | rain 24hr in | rain mn in | humidity % | barometer mb |
| 20260509063004 | 44 | 37 | 0.0 | 1.0 | 0.00 | 0.00 | 0.00 | 61 | 999.7 |
| 20260509062004 | 44 | 345 | 0.0 | 1.0 | 0.00 | 0.00 | 0.00 | 62 | 999.6 |
| 20260509060004 | 45 | 69 | 0.0 | 2.0 | 0.00 | 0.00 | 0.00 | 61 | 999.9 |
| 20260509053004 | 46 | 34 | 0.0 | 1.0 | 0.00 | 0.00 | 0.00 | 58 | 1000.2 |
| 20260509052003 | 46 | 11 | 0.0 | 1.0 | 0.00 | 0.00 | 0.00 | 60 | 1000.5 |
| 20260509051004 | 45 | 319 | 0.0 | 1.0 | 0.00 | 0.00 | 0.00 | 57 | 1000.6 |
| 20260509050004 | 45 | 339 | 0.0 | 1.0 | 0.00 | 0.00 | 0.00 | 58 | 1000.6 |
| 20260509045004 | 45 | 12 | 0.0 | 1.0 | 0.00 | 0.00 | 0.00 | 59 | 1000.8 |
| 20260509044004 | 45 | 4 | 0.0 | 1.0 | 0.00 | 0.00 | 0.00 | 59 | 1000.8 |
| 20260509043004 | 45 | 327 | 0.0 | 1.0 | 0.00 | 0.00 | 0.00 | 59 | 1000.9 |
| 20260509042004 | 45 | 353 | 0.0 | 1.0 | 0.00 | 0.00 | 0.00 | 60 | 1001.2 |
| 20260509041003 | 46 | 319 | 0.0 | 1.0 | 0.00 | 0.00 | 0.00 | 58 | 1001.1 |
| 20260509040004 | 46 | 299 | 0.0 | 1.0 | 0.00 | 0.00 | 0.00 | 56 | 1001.2 |
| 20260509035004 | 47 | 317 | 0.0 | 1.0 | 0.00 | 0.00 | 0.00 | 55 | 1001.4 |
| 20260509034004 | 47 | 22 | 0.0 | 1.0 | 0.00 | 0.00 | 0.00 | 54 | 1001.7 |
| 20260509031005 | 47 | 312 | 0.0 | 1.0 | 0.00 | 0.00 | 0.00 | 51 | 1001.8 |
| 20260509030003 | 48 | 310 | 0.0 | 1.0 | 0.00 | 0.00 | 0.00 | 50 | 1001.9 |
| 20260509025004 | 48 | 334 | 1.0 | 1.0 | 0.00 | 0.00 | 0.00 | 50 | 1002.1 |
| 20260509024004 | 48 | 32 | 0.0 | 1.0 | 0.00 | 0.00 | 0.00 | 49 | 1002.0 |
| 20260509023004 | 49 | 324 | 0.0 | 1.0 | 0.00 | 0.00 | 0.00 | 49 | 1002.1 |
| 20260509022003 | 50 | 324 | 1.0 | 1.0 | 0.00 | 0.00 | 0.00 | 47 | 1002.1 |
| 20260509020004 | 53 | 32 | 0.0 | 2.0 | 0.00 | 0.00 | 0.00 | 44 | 1002.4 |
| 20260509015004 | 54 | 309 | 0.0 | 2.0 | 0.00 | 0.00 | 0.00 | 42 | 1002.4 |
| 20260509014004 | 56 | 345 | 1.0 | 2.0 | 0.00 | 0.00 | 0.00 | 39 | 1002.3 |
| 20260509012004 | 59 | 333 | 1.0 | 3.0 | 0.00 | 0.00 | 0.00 | 36 | 1002.3 |
| 20260509011003 | 59 | 338 | 1.0 | 5.0 | 0.00 | 0.00 | 0.00 | 35 | 1002.2 |
| 20260509010003 | 59 | 41 | 0.0 | 2.0 | 0.00 | 0.00 | 0.00 | 35 | 1002.5 |
| 20260509005004 | 60 | 276 | 2.0 | 8.0 | 0.00 | 0.00 | 0.00 | 33 | 1002.5 |
| 20260509004004 | 60 | 264 | 1.0 | 7.0 | 0.00 | 0.00 | 0.00 | 33 | 1002.6 |
| 20260509003003 | 61 | 288 | 3.0 | 8.0 | 0.00 | 0.00 | 0.00 | 32 | 1002.6 |
| 20260509002004 | 60 | 17 | 1.0 | 2.0 | 0.00 | 0.00 | 0.00 | 34 | 1002.6 |
| 20260509001004 | 61 | 268 | 1.0 | 2.0 | 0.00 | 0.00 | 0.00 | 32 | 1002.7 |
| 20260509000004 | 61 | 304 | 2.0 | 3.0 | 0.00 | 0.00 | 0.00 | 31 | 1002.8 |
| 20260508235003 | 61 | 342 | 1.0 | 6.0 | 0.00 | 0.00 | 0.00 | 32 | 1002.6 |
| 20260508234003 | 61 | 272 | 3.0 | 7.0 | 0.00 | 0.00 | 0.00 | 31 | 1002.8 |
| 20260508231003 | 62 | 261 | 2.0 | 9.0 | 0.00 | 0.00 | 0.00 | 31 | 1003.1 |
| 20260508230004 | 62 | 282 | 4.0 | 9.0 | 0.00 | 0.00 | 0.00 | 30 | 1003.2 |
| 20260508225003 | 62 | 233 | 3.0 | 13.0 | 0.00 | 0.00 | 0.00 | 30 | 1003.0 |
| 20260508224004 | 62 | 263 | 5.0 | 10.0 | 0.00 | 0.00 | 0.00 | 29 | 1003.2 |
| 20260508221003 | 62 | 288 | 6.0 | 10.0 | 0.00 | 0.00 | 0.00 | 29 | 1003.3 |
| 20260508215004 | 62 | 290 | 6.0 | 13.0 | 0.00 | 0.00 | 0.00 | 29 | 1003.5 |
| 20260508214004 | 62 | 292 | 4.0 | 20.0 | 0.00 | 0.00 | 0.00 | 30 | 1003.6 |
| 20260508213004 | 62 | 280 | 5.0 | 13.0 | 0.00 | 0.00 | 0.00 | 29 | 1003.6 |
| 20260508212004 | 62 | 329 | 6.0 | 21.0 | 0.00 | 0.00 | 0.00 | 29 | 1003.5 |
| 20260508211004 | 62 | 280 | 6.0 | 10.0 | 0.00 | 0.00 | 0.00 | 30 | 1003.7 |
| 20260508210004 | 62 | 325 | 4.0 | 7.0 | 0.00 | 0.00 | 0.00 | 30 | 1003.7 |
| 20260508204004 | 62 | 292 | 5.0 | 12.0 | 0.00 | 0.00 | 0.00 | 30 | 1003.9 |
| 20260508203004 | 62 | 235 | 3.0 | 15.0 | 0.00 | 0.00 | 0.00 | 30 | 1004.0 |
| 20260508201004 | 62 | 0 | 5.0 | 15.0 | 0.00 | 0.00 | 0.00 | 29 | 1004.2 |
| 20260508200004 | 62 | 324 | 5.0 | 17.0 | 0.00 | 0.00 | 0.00 | 30 | 1004.3 |
| 20260508195003 | 61 | 277 | 2.0 | 12.0 | 0.00 | 0.00 | 0.00 | 29 | 1004.4 |
| 20260508194004 | 62 | 287 | 4.0 | 14.0 | 0.00 | 0.00 | 0.00 | 29 | 1004.6 |
| 20260508193004 | 62 | 242 | 3.0 | 13.0 | 0.00 | 0.00 | 0.00 | 29 | 1004.5 |
| 20260508192004 | 62 | 305 | 3.0 | 10.0 | 0.00 | 0.00 | 0.00 | 30 | 1004.6 |
| 20260508191003 | 63 | 7 | 3.0 | 10.0 | 0.00 | 0.00 | 0.00 | 29 | 1004.8 |
| 20260508190003 | 60 | 260 | 5.0 | 10.0 | 0.00 | 0.00 | 0.00 | 31 | 1005.1 |
| 20260508184003 | 61 | 272 | 6.0 | 13.0 | 0.00 | 0.00 | 0.00 | 30 | 1005.1 |
| 20260508183003 | 60 | 255 | 4.0 | 10.0 | 0.00 | 0.00 | 0.00 | 30 | 1005.3 |
| 20260508182004 | 61 | 261 | 4.0 | 10.0 | 0.00 | 0.00 | 0.00 | 30 | 1005.3 |
| 20260508181005 | 61 | 292 | 5.0 | 10.0 | 0.00 | 0.00 | 0.00 | 29 | 1005.6 |
| 20260508180004 | 60 | 298 | 2.0 | 15.0 | 0.00 | 0.00 | 0.00 | 30 | 1005.5 |
| 20260508175004 | 60 | 317 | 2.0 | 13.0 | 0.00 | 0.00 | 0.00 | 29 | 1005.8 |
| 20260508174004 | 60 | 277 | 4.0 | 16.0 | 0.00 | 0.00 | 0.00 | 29 | 1005.9 |
| 20260508173004 | 62 | 301 | 4.0 | 10.0 | 0.00 | 0.00 | 0.00 | 28 | 1006.1 |
| 20260508172004 | 61 | 298 | 5.0 | 16.0 | 0.00 | 0.00 | 0.00 | 29 | 1006.3 |
| 20260508171004 | 59 | 338 | 5.0 | 20.0 | 0.00 | 0.00 | 0.00 | 29 | 1006.4 |
| 20260508165005 | 59 | 285 | 6.0 | 13.0 | 0.00 | 0.00 | 0.00 | 30 | 1006.4 |
| 20260508164004 | 59 | 250 | 3.0 | 20.0 | 0.00 | 0.00 | 0.00 | 30 | 1006.6 |
| 20260508163004 | 60 | 295 | 3.0 | 15.0 | 0.00 | 0.00 | 0.00 | 30 | 1006.8 |
| 20260508162004 | 60 | 244 | 8.0 | 13.0 | 0.00 | 0.00 | 0.00 | 30 | 1006.8 |
| 20260508161003 | 58 | 243 | 10.0 | 18.0 | 0.00 | 0.00 | 0.00 | 31 | 1007.0 |
| 20260508160003 | 58 | 308 | 6.0 | 14.0 | 0.00 | 0.00 | 0.00 | 32 | 1007.0 |
| 20260508154004 | 57 | 315 | 5.0 | 12.0 | 0.00 | 0.00 | 0.00 | 32 | 1007.2 |
| 20260508153004 | 57 | 263 | 5.0 | 15.0 | 0.00 | 0.00 | 0.00 | 32 | 1007.4 |
| 20260508152004 | 58 | 299 | 5.0 | 14.0 | 0.00 | 0.00 | 0.00 | 32 | 1007.5 |
| 20260508151004 | 57 | 301 | 3.0 | 17.0 | 0.00 | 0.00 | 0.00 | 33 | 1007.6 |
| 20260508150004 | 56 | 291 | 6.0 | 15.0 | 0.00 | 0.00 | 0.00 | 33 | 1007.7 |
| 20260508145004 | 55 | 314 | 7.0 | 13.0 | 0.00 | 0.00 | 0.00 | 34 | 1007.7 |
| 20260508144003 | 55 | 354 | 5.0 | 13.0 | 0.00 | 0.00 | 0.00 | 35 | 1007.8 |
| 20260508143004 | 55 | 27 | 2.0 | 7.0 | 0.00 | 0.00 | 0.00 | 39 | 1007.8 |
| 20260508142004 | 53 | 129 | 1.0 | 7.0 | 0.00 | 0.00 | 0.00 | 40 | 1008.1 |
| 20260508141004 | 52 | 296 | 2.0 | 6.0 | 0.00 | 0.00 | 0.00 | 42 | 1008.3 |
| 20260508140004 | 51 | 283 | 0.0 | 6.0 | 0.00 | 0.00 | 0.00 | 43 | 1008.2 |
| 20260508135004 | 49 | 260 | 2.0 | 6.0 | 0.00 | 0.00 | 0.00 | 46 | 1008.3 |
| 20260508134004 | 48 | 126 | 2.0 | 7.0 | 0.00 | 0.00 | 0.00 | 49 | 1008.2 |
| 20260508133004 | 48 | 265 | 2.0 | 8.0 | 0.00 | 0.00 | 0.00 | 50 | 1008.3 |
| 20260508132003 | 47 | 240 | 2.0 | 10.0 | 0.00 | 0.00 | 0.00 | 52 | 1008.4 |
| 20260508131004 | 45 | 256 | 3.0 | 6.0 | 0.00 | 0.00 | 0.00 | 55 | 1008.6 |
| 20260508130004 | 44 | 238 | 2.0 | 6.0 | 0.00 | 0.00 | 0.00 | 59 | 1008.3 |
| 20260508125003 | 43 | 237 | 2.0 | 6.0 | 0.00 | 0.00 | 0.00 | 63 | 1008.5 |
| 20260508124004 | 41 | 260 | 2.0 | 6.0 | 0.00 | 0.00 | 0.00 | 69 | 1008.5 |
| 20260508122004 | 37 | 275 | 1.0 | 3.0 | 0.00 | 0.00 | 0.00 | 84 | 1008.6 |
| 20260508121004 | 33 | 245 | 1.0 | 5.0 | 0.00 | 0.00 | 0.00 | 90 | 1008.4 |
| 20260508120003 | 30 | 284 | 0.0 | 1.0 | 0.00 | 0.00 | 0.00 | 92 | 1008.6 |
| 20260508115004 | 29 | 54 | 0.0 | 1.0 | 0.00 | 0.00 | 0.00 | 93 | 1008.6 |
| 20260508114004 | 28 | 69 | 0.0 | 1.0 | 0.00 | 0.00 | 0.00 | 94 | 1008.6 |
| 20260508113004 | 28 | 5 | 1.0 | 1.0 | 0.00 | 0.00 | 0.00 | 94 | 1008.5 |
| 20260508112003 | 27 | 0 | 1.0 | 2.0 | 0.00 | 0.00 | 0.00 | 94 | 1008.5 |
| 20260508110004 | 27 | 330 | 1.0 | 2.0 | 0.00 | 0.00 | 0.00 | 94 | 1008.4 |
| 20260508105004 | 27 | 305 | 1.0 | 2.0 | 0.00 | 0.00 | 0.00 | 94 | 1008.5 |
| 20260508103004 | 27 | 301 | 0.0 | 2.0 | 0.00 | 0.00 | 0.00 | 93 | 1008.4 |
| 20260508102004 | 28 | 357 | 1.0 | 2.0 | 0.00 | 0.00 | 0.00 | 93 | 1008.6 |
| 20260508101004 | 28 | 326 | 1.0 | 1.0 | 0.00 | 0.00 | 0.00 | 92 | 1008.5 |
| 20260508100004 | 28 | 32 | 0.0 | 1.0 | 0.00 | 0.00 | 0.00 | 92 | 1008.7 |
| 20260508095004 | 29 | 319 | 0.0 | 1.0 | 0.00 | 0.00 | 0.00 | 91 | 1008.6 |
| 20260508094004 | 29 | 311 | 1.0 | 2.0 | 0.00 | 0.00 | 0.00 | 90 | 1008.8 |
| 20260508093004 | 30 | 14 | 1.0 | 2.0 | 0.00 | 0.00 | 0.00 | 89 | 1008.7 |
| 20260508092003 | 31 | 8 | 1.0 | 2.0 | 0.00 | 0.00 | 0.00 | 88 | 1008.8 |
| 20260508091004 | 31 | 5 | 1.0 | 1.0 | 0.00 | 0.00 | 0.00 | 86 | 1008.7 |
| 20260508090004 | 32 | 299 | 0.0 | 1.0 | 0.00 | 0.00 | 0.00 | 85 | 1009.0 |
| 20260508085003 | 33 | 332 | 0.0 | 1.0 | 0.00 | 0.00 | 0.00 | 85 | 1008.8 |
| 20260508083004 | 33 | 38 | 1.0 | 1.0 | 0.00 | 0.00 | 0.00 | 85 | 1009.3 |
| 20260508082003 | 33 | 1 | 1.0 | 1.0 | 0.00 | 0.00 | 0.00 | 84 | 1009.2 |
| 20260508081004 | 33 | 312 | 0.0 | 0.0 | 0.00 | 0.00 | 0.00 | 84 | 1009.3 |
| 20260508080004 | 33 | 22 | 0.0 | 1.0 | 0.00 | 0.00 | 0.00 | 84 | 1009.3 |
| 20260508075004 | 33 | 30 | 0.0 | 1.0 | 0.00 | 0.00 | 0.00 | 84 | 1009.3 |
| 20260508074003 | 32 | 20 | 0.0 | 1.0 | 0.00 | 0.00 | 0.00 | 85 | 1009.4 |
| 20260508073004 | 32 | 18 | 0.0 | 1.0 | 0.00 | 0.00 | 0.00 | 85 | 1009.6 |
| 20260508072003 | 32 | 4 | 0.0 | 1.0 | 0.00 | 0.00 | 0.00 | 84 | 1009.5 |
| 20260508071003 | 33 | 38 | 0.0 | 1.0 | 0.00 | 0.00 | 0.00 | 85 | 1009.5 |
| 20260508070004 | 33 | 27 | 0.0 | 1.0 | 0.00 | 0.00 | 0.00 | 84 | 1009.5 |
| 20260508065004 | 33 | 21 | 0.0 | 1.0 | 0.00 | 0.00 | 0.00 | 84 | 1009.8 |